sensor_id;sensor_type;location;lat;lon;timestamp;pressure;altitude;pressure_sealevel;temperature;humidity
62524;BME280;53689;56.878;60.672;2023-04-27T00:02:00;97628.31;;;25.03;20.82
62524;BME280;53689;56.878;60.672;2023-04-27T00:04:27;97630.66;;;25.12;20.51
62524;BME280;53689;56.878;60.672;2023-04-27T00:06:57;97637.13;;;25.11;20.92
62524;BME280;53689;56.878;60.672;2023-04-27T00:09:24;97632.69;;;25.04;20.75
62524;BME280;53689;56.878;60.672;2023-04-27T00:11:52;97634.31;;;25.05;21.23
62524;BME280;53689;56.878;60.672;2023-04-27T00:14:20;97632.91;;;25.03;21.32
62524;BME280;53689;56.878;60.672;2023-04-27T00:16:47;97636.56;;;25.08;21.35
62524;BME280;53689;56.878;60.672;2023-04-27T00:19:15;97632.19;;;25.07;21.30
62524;BME280;53689;56.878;60.672;2023-04-27T00:21:43;97636.56;;;25.08;20.75
62524;BME280;53689;56.878;60.672;2023-04-27T00:24:12;97639.75;;;25.05;21.55
62524;BME280;53689;56.878;60.672;2023-04-27T00:26:39;97637.84;;;25.06;21.37
62524;BME280;53689;56.878;60.672;2023-04-27T00:29:07;97639.50;;;25.07;21.57
62524;BME280;53689;56.878;60.672;2023-04-27T00:31:35;97641.84;;;25.03;21.61
62524;BME280;53689;56.878;60.672;2023-04-27T00:34:03;97641.03;;;25.03;20.97
62524;BME280;53689;56.878;60.672;2023-04-27T00:36:32;97631.00;;;25.03;21.26
62524;BME280;53689;56.878;60.672;2023-04-27T00:39:01;97628.78;;;25.00;21.68
62524;BME280;53689;56.878;60.672;2023-04-27T00:41:35;97625.84;;;25.02;21.33
62524;BME280;53689;56.878;60.672;2023-04-27T00:44:02;97621.72;;;24.99;21.58
62524;BME280;53689;56.878;60.672;2023-04-27T00:46:31;97623.38;;;25.00;21.82
62524;BME280;53689;56.878;60.672;2023-04-27T00:49:00;97631.72;;;24.99;21.14
62524;BME280;53689;56.878;60.672;2023-04-27T00:51:27;97627.13;;;24.99;21.78
62524;BME280;53689;56.878;60.672;2023-04-27T00:53:56;97624.78;;;25.03;21.71
62524;BME280;53689;56.878;60.672;2023-04-27T00:56:24;97621.72;;;24.99;21.99
62524;BME280;53689;56.878;60.672;2023-04-27T00:58:53;97626.28;;;24.99;21.27
62524;BME280;53689;56.878;60.672;2023-04-27T01:01:21;97622.88;;;25.03;22.05
62524;BME280;53689;56.878;60.672;2023-04-27T01:03:50;97617.47;;;25.03;21.33
62524;BME280;53689;56.878;60.672;2023-04-27T01:06:18;97619.13;;;25.04;21.79
62524;BME280;53689;56.878;60.672;2023-04-27T01:08:45;97608.75;;;25.01;21.88
62524;BME280;53689;56.878;60.672;2023-04-27T01:11:13;97612.53;;;25.00;21.75
62524;BME280;53689;56.878;60.672;2023-04-27T01:13:40;97615.47;;;24.99;22.04
62524;BME280;53689;56.878;60.672;2023-04-27T01:16:09;97605.59;;;25.04;22.37
62524;BME280;53689;56.878;60.672;2023-04-27T01:18:38;97613.13;;;25.02;21.59
62524;BME280;53689;56.878;60.672;2023-04-27T01:21:05;97605.97;;;24.96;22.42
62524;BME280;53689;56.878;60.672;2023-04-27T01:23:34;97591.22;;;25.04;21.93
62524;BME280;53689;56.878;60.672;2023-04-27T01:26:02;97604.19;;;25.02;21.95
62524;BME280;53689;56.878;60.672;2023-04-27T01:28:30;97605.47;;;24.99;21.94
62524;BME280;53689;56.878;60.672;2023-04-27T01:30:59;97605.00;;;25.02;22.20
62524;BME280;53689;56.878;60.672;2023-04-27T01:33:27;97598.75;;;25.02;22.45
62524;BME280;53689;56.878;60.672;2023-04-27T01:35:54;97611.13;;;24.98;22.56
62524;BME280;53689;56.878;60.672;2023-04-27T01:38:22;97610.06;;;24.99;22.44
62524;BME280;53689;56.878;60.672;2023-04-27T01:40:51;97609.25;;;24.98;22.76
62524;BME280;53689;56.878;60.672;2023-04-27T01:43:20;97615.59;;;24.92;23.38
62524;BME280;53689;56.878;60.672;2023-04-27T01:45:47;97616.06;;;24.89;23.25
62524;BME280;53689;56.878;60.672;2023-04-27T01:48:15;97612.31;;;24.90;22.71
62524;BME280;53689;56.878;60.672;2023-04-27T01:50:43;97611.72;;;24.88;22.46
62524;BME280;53689;56.878;60.672;2023-04-27T01:53:10;97612.78;;;24.87;23.43
62524;BME280;53689;56.878;60.672;2023-04-27T01:55:38;97618.41;;;24.85;22.86
62524;BME280;53689;56.878;60.672;2023-04-27T01:58:07;97619.25;;;24.86;23.22
62524;BME280;53689;56.878;60.672;2023-04-27T02:00:35;97624.69;;;24.86;22.72
62524;BME280;53689;56.878;60.672;2023-04-27T02:03:02;97619.00;;;24.87;23.38
62524;BME280;53689;56.878;60.672;2023-04-27T02:05:30;97625.25;;;24.88;23.30
62524;BME280;53689;56.878;60.672;2023-04-27T02:07:57;97619.13;;;24.80;23.37
62524;BME280;53689;56.878;60.672;2023-04-27T02:10:25;97617.25;;;24.81;23.64
62524;BME280;53689;56.878;60.672;2023-04-27T02:12:55;97612.78;;;24.87;23.43
62524;BME280;53689;56.878;60.672;2023-04-27T02:15:24;97625.72;;;24.85;23.74
62524;BME280;53689;56.878;60.672;2023-04-27T02:17:52;97619.25;;;24.86;23.37
62524;BME280;53689;56.878;60.672;2023-04-27T02:20:20;97613.72;;;24.80;23.32
62524;BME280;53689;56.878;60.672;2023-04-27T02:22:48;97614.78;;;24.79;23.15
62524;BME280;53689;56.878;60.672;2023-04-27T02:25:16;97616.72;;;24.72;23.63
62524;BME280;53689;56.878;60.672;2023-04-27T02:27:44;97612.72;;;24.63;23.53
62524;BME280;53689;56.878;60.672;2023-04-27T02:30:13;97619.56;;;24.77;23.74
62524;BME280;53689;56.878;60.672;2023-04-27T02:32:43;97606.59;;;24.67;24.22
62524;BME280;53689;56.878;60.672;2023-04-27T02:35:10;97610.50;;;24.72;23.86
62524;BME280;53689;56.878;60.672;2023-04-27T02:37:38;97613.09;;;24.66;24.33
62524;BME280;53689;56.878;60.672;2023-04-27T02:40:07;97614.50;;;24.69;24.47
62524;BME280;53689;56.878;60.672;2023-04-27T02:42:35;97609.31;;;24.67;24.08
62524;BME280;53689;56.878;60.672;2023-04-27T02:45:04;97620.25;;;24.61;25.50
62524;BME280;53689;56.878;60.672;2023-04-27T02:47:32;97622.56;;;24.45;25.03
62524;BME280;53689;56.878;60.672;2023-04-27T02:50:01;97620.47;;;24.47;24.83
62524;BME280;53689;56.878;60.672;2023-04-27T02:52:33;97619.75;;;24.40;27.09
62524;BME280;53689;56.878;60.672;2023-04-27T02:55:00;97618.72;;;24.10;26.33
62524;BME280;53689;56.878;60.672;2023-04-27T02:57:28;97614.06;;;23.99;28.79
62524;BME280;53689;56.878;60.672;2023-04-27T02:59:55;97619.31;;;24.13;28.76
62524;BME280;53689;56.878;60.672;2023-04-27T03:02:23;97608.34;;;24.38;26.41
62524;BME280;53689;56.878;60.672;2023-04-27T03:04:51;97604.25;;;24.47;25.56
62524;BME280;53689;56.878;60.672;2023-04-27T03:07:21;97604.25;;;24.47;26.12
62524;BME280;53689;56.878;60.672;2023-04-27T03:09:48;97613.50;;;24.39;26.56
62524;BME280;53689;56.878;60.672;2023-04-27T03:12:16;97622.00;;;24.43;26.30
62524;BME280;53689;56.878;60.672;2023-04-27T03:14:43;97612.00;;;24.56;26.03
62524;BME280;53689;56.878;60.672;2023-04-27T03:17:11;97626.25;;;24.63;25.89
62524;BME280;53689;56.878;60.672;2023-04-27T03:19:39;97616.16;;;24.70;25.17
62524;BME280;53689;56.878;60.672;2023-04-27T03:22:06;97623.34;;;24.76;25.10
62524;BME280;53689;56.878;60.672;2023-04-27T03:24:36;97622.72;;;24.74;25.48
62524;BME280;53689;56.878;60.672;2023-04-27T03:27:03;97626.50;;;24.73;24.89
62524;BME280;53689;56.878;60.672;2023-04-27T03:29:31;97630.03;;;24.62;25.18
62524;BME280;53689;56.878;60.672;2023-04-27T03:31:59;97628.16;;;24.62;25.35
62524;BME280;53689;56.878;60.672;2023-04-27T03:34:27;97626.28;;;24.75;25.77
62524;BME280;53689;56.878;60.672;2023-04-27T03:36:54;97625.19;;;24.64;25.47
62524;BME280;53689;56.878;60.672;2023-04-27T03:39:22;97626.72;;;24.60;25.58
62524;BME280;53689;56.878;60.672;2023-04-27T03:41:51;97618.72;;;24.53;25.38
62524;BME280;53689;56.878;60.672;2023-04-27T03:44:19;97616.72;;;24.60;25.39
62524;BME280;53689;56.878;60.672;2023-04-27T03:46:46;97609.91;;;24.70;26.10
62524;BME280;53689;56.878;60.672;2023-04-27T03:49:14;97616.25;;;24.75;26.21
62524;BME280;53689;56.878;60.672;2023-04-27T03:51:42;97614.03;;;24.72;25.95
62524;BME280;53689;56.878;60.672;2023-04-27T03:54:09;97624.59;;;24.62;25.79
62524;BME280;53689;56.878;60.672;2023-04-27T03:56:39;97628.13;;;24.50;26.93
62524;BME280;53689;56.878;60.672;2023-04-27T03:59:09;97625.06;;;24.47;26.44
62524;BME280;53689;56.878;60.672;2023-04-27T04:01:42;97620.00;;;24.50;26.61
62524;BME280;53689;56.878;60.672;2023-04-27T04:04:09;97608.97;;;24.09;27.88
62524;BME280;53689;56.878;60.672;2023-04-27T04:06:37;97619.94;;;24.15;28.58
62524;BME280;53689;56.878;60.672;2023-04-27T04:09:05;97612.84;;;24.56;26.71
62524;BME280;53689;56.878;60.672;2023-04-27T04:11:32;97613.88;;;24.43;27.34
62524;BME280;53689;56.878;60.672;2023-04-27T04:14:03;97616.59;;;24.55;27.18
62524;BME280;53689;56.878;60.672;2023-04-27T04:16:33;97613.78;;;24.62;27.03
62524;BME280;53689;56.878;60.672;2023-04-27T04:19:01;97623.06;;;24.54;26.33
62524;BME280;53689;56.878;60.672;2023-04-27T04:21:28;97606.50;;;24.62;26.55
62524;BME280;53689;56.878;60.672;2023-04-27T04:23:56;97601.19;;;24.67;26.48
62524;BME280;53689;56.878;60.672;2023-04-27T04:26:24;97600.97;;;24.69;26.23
62524;BME280;53689;56.878;60.672;2023-04-27T04:28:51;97595.16;;;24.42;29.49
62524;BME280;53689;56.878;60.672;2023-04-27T04:31:19;97588.00;;;24.35;27.59
62524;BME280;53689;56.878;60.672;2023-04-27T04:33:48;97586.94;;;24.48;26.53
62524;BME280;53689;56.878;60.672;2023-04-27T04:36:16;97571.41;;;24.56;27.56
62524;BME280;53689;56.878;60.672;2023-04-27T04:38:43;97578.34;;;24.51;26.93
62524;BME280;53689;56.878;60.672;2023-04-27T04:41:11;97571.19;;;24.33;28.87
62524;BME280;53689;56.878;60.672;2023-04-27T04:43:39;97572.09;;;24.51;27.97
62524;BME280;53689;56.878;60.672;2023-04-27T04:46:07;97568.09;;;23.99;30.06
62524;BME280;53689;56.878;60.672;2023-04-27T04:48:35;97578.44;;;23.41;30.54
62524;BME280;53689;56.878;60.672;2023-04-27T04:51:05;97566.72;;;22.91;32.24
62524;BME280;53689;56.878;60.672;2023-04-27T04:53:34;97573.28;;;22.77;31.53
62524;BME280;53689;56.878;60.672;2023-04-27T04:56:08;97571.28;;;23.09;31.17
62524;BME280;53689;56.878;60.672;2023-04-27T04:58:35;97565.13;;;23.21;31.39
62524;BME280;53689;56.878;60.672;2023-04-27T05:01:06;97573.34;;;22.44;31.30
62524;BME280;53689;56.878;60.672;2023-04-27T05:03:34;97562.78;;;22.68;31.26
62524;BME280;53689;56.878;60.672;2023-04-27T05:06:01;97559.50;;;22.85;30.49
62524;BME280;53689;56.878;60.672;2023-04-27T05:08:30;97556.75;;;23.29;30.62
62524;BME280;53689;56.878;60.672;2023-04-27T05:11:01;97560.91;;;23.32;29.99
62524;BME280;53689;56.878;60.672;2023-04-27T05:13:28;97558.47;;;23.23;29.93
62524;BME280;53689;56.878;60.672;2023-04-27T05:15:56;97559.13;;;23.00;30.39
62524;BME280;53689;56.878;60.672;2023-04-27T05:18:24;97557.34;;;23.12;29.90
62524;BME280;53689;56.878;60.672;2023-04-27T05:20:52;97568.28;;;23.18;30.52
62524;BME280;53689;56.878;60.672;2023-04-27T05:23:19;97555.69;;;23.49;29.99
62524;BME280;53689;56.878;60.672;2023-04-27T05:25:48;97561.66;;;22.76;30.53
62524;BME280;53689;56.878;60.672;2023-04-27T05:28:16;97562.31;;;22.53;30.49
62524;BME280;53689;56.878;60.672;2023-04-27T05:30:44;97553.47;;;22.39;30.65
62524;BME280;53689;56.878;60.672;2023-04-27T05:33:11;97555.78;;;22.35;30.86
62524;BME280;53689;56.878;60.672;2023-04-27T05:35:39;97551.47;;;22.27;30.78
62524;BME280;53689;56.878;60.672;2023-04-27T05:38:07;97560.88;;;22.50;30.50
62524;BME280;53689;56.878;60.672;2023-04-27T05:40:34;97551.59;;;22.65;30.49
62524;BME280;53689;56.878;60.672;2023-04-27T05:43:03;97556.59;;;23.05;29.74
62524;BME280;53689;56.878;60.672;2023-04-27T05:45:38;97558.34;;;22.49;30.51
62524;BME280;53689;56.878;60.672;2023-04-27T05:48:05;97548.19;;;22.95;29.60
62524;BME280;53689;56.878;60.672;2023-04-27T05:50:34;97552.22;;;23.04;30.18
62524;BME280;53689;56.878;60.672;2023-04-27T05:53:01;97552.09;;;23.18;29.63
62524;BME280;53689;56.878;60.672;2023-04-27T05:55:29;97560.31;;;22.85;30.05
62524;BME280;53689;56.878;60.672;2023-04-27T05:57:56;97557.75;;;22.47;30.70
62524;BME280;53689;56.878;60.672;2023-04-27T06:00:35;97562.97;;;22.67;30.85
62524;BME280;53689;56.878;60.672;2023-04-27T06:03:03;97550.25;;;22.74;30.28
62524;BME280;53689;56.878;60.672;2023-04-27T06:05:31;97550.63;;;22.78;30.53
62524;BME280;53689;56.878;60.672;2023-04-27T06:07:58;97545.19;;;22.34;31.24
62524;BME280;53689;56.878;60.672;2023-04-27T06:10:26;97542.97;;;22.56;30.47
62524;BME280;53689;56.878;60.672;2023-04-27T06:12:54;97543.69;;;22.12;31.24
62524;BME280;53689;56.878;60.672;2023-04-27T06:15:22;97542.50;;;22.34;31.17
62524;BME280;53689;56.878;60.672;2023-04-27T06:17:51;97542.56;;;22.27;31.06
62524;BME280;53689;56.878;60.672;2023-04-27T06:20:18;97542.00;;;22.18;31.35
62524;BME280;53689;56.878;60.672;2023-04-27T06:22:46;97536.59;;;22.18;31.07
62524;BME280;53689;56.878;60.672;2023-04-27T06:25:14;97537.31;;;22.32;30.83
62524;BME280;53689;56.878;60.672;2023-04-27T06:27:41;97535.84;;;22.36;31.04
62524;BME280;53689;56.878;60.672;2023-04-27T06:30:10;97535.78;;;22.68;30.68
62524;BME280;53689;56.878;60.672;2023-04-27T06:32:38;97535.78;;;22.43;30.68
62524;BME280;53689;56.878;60.672;2023-04-27T06:35:08;97529.88;;;22.27;30.74
62524;BME280;53689;56.878;60.672;2023-04-27T06:37:35;97535.78;;;22.43;30.66
62524;BME280;53689;56.878;60.672;2023-04-27T06:40:03;97533.31;;;22.16;30.35
62524;BME280;53689;56.878;60.672;2023-04-27T06:42:31;97531.66;;;22.40;30.32
62524;BME280;53689;56.878;60.672;2023-04-27T06:44:59;97539.59;;;22.35;30.74
62524;BME280;53689;56.878;60.672;2023-04-27T06:47:26;97525.06;;;22.62;30.53
62524;BME280;53689;56.878;60.672;2023-04-27T06:49:54;97520.75;;;22.79;30.21
62524;BME280;53689;56.878;60.672;2023-04-27T06:52:23;97521.63;;;23.10;29.81
62524;BME280;53689;56.878;60.672;2023-04-27T06:54:51;97518.84;;;22.61;30.26
62524;BME280;53689;56.878;60.672;2023-04-27T06:57:18;97510.75;;;22.80;29.70
62524;BME280;53689;56.878;60.672;2023-04-27T06:59:46;97515.63;;;22.71;30.44
62524;BME280;53689;56.878;60.672;2023-04-27T07:02:14;97515.91;;;22.63;29.67
62524;BME280;53689;56.878;60.672;2023-04-27T07:04:41;97496.31;;;22.49;30.88
62524;BME280;53689;56.878;60.672;2023-04-27T07:07:09;97513.06;;;22.76;30.27
62524;BME280;53689;56.878;60.672;2023-04-27T07:09:38;97494.56;;;23.36;29.22
62524;BME280;53689;56.878;60.672;2023-04-27T07:12:06;97504.47;;;23.23;29.63
62524;BME280;53689;56.878;60.672;2023-04-27T07:14:33;97499.16;;;22.98;29.36
62524;BME280;53689;56.878;60.672;2023-04-27T07:17:01;97488.66;;;22.90;29.31
62524;BME280;53689;56.878;60.672;2023-04-27T07:19:28;97498.31;;;23.16;29.50
62524;BME280;53689;56.878;60.672;2023-04-27T07:21:56;97499.28;;;23.40;29.37
62524;BME280;53689;56.878;60.672;2023-04-27T07:24:24;97511.00;;;23.34;29.79
62524;BME280;53689;56.878;60.672;2023-04-27T07:26:52;97501.31;;;23.08;29.41
62524;BME280;53689;56.878;60.672;2023-04-27T07:29:20;97488.25;;;23.23;29.71
62524;BME280;53689;56.878;60.672;2023-04-27T07:31:53;97488.94;;;23.19;29.67
62524;BME280;53689;56.878;60.672;2023-04-27T07:34:21;97494.84;;;24.19;27.53
62524;BME280;53689;56.878;60.672;2023-04-27T07:36:50;97501.53;;;23.86;28.53
62524;BME280;53689;56.878;60.672;2023-04-27T07:39:17;97490.31;;;23.59;29.03
62524;BME280;53689;56.878;60.672;2023-04-27T07:41:45;97478.53;;;22.85;29.61
62524;BME280;53689;56.878;60.672;2023-04-27T07:44:14;97486.84;;;23.02;29.03
62524;BME280;53689;56.878;60.672;2023-04-27T07:46:42;97477.03;;;22.89;29.17
62524;BME280;53689;56.878;60.672;2023-04-27T07:49:10;97478.28;;;23.24;29.28
62524;BME280;53689;56.878;60.672;2023-04-27T07:51:38;97483.25;;;22.90;29.33
62524;BME280;53689;56.878;60.672;2023-04-27T07:54:05;97477.28;;;23.18;28.95
62524;BME280;53689;56.878;60.672;2023-04-27T07:56:33;97471.69;;;23.38;29.10
62524;BME280;53689;56.878;60.672;2023-04-27T07:59:01;97481.59;;;23.07;29.40
62524;BME280;53689;56.878;60.672;2023-04-27T08:01:30;97472.44;;;23.27;29.85
62524;BME280;53689;56.878;60.672;2023-04-27T08:03:58;97473.78;;;23.79;28.95
62524;BME280;53689;56.878;60.672;2023-04-27T08:06:26;97461.91;;;24.22;27.44
62524;BME280;53689;56.878;60.672;2023-04-27T08:08:55;97466.47;;;23.67;28.35
62524;BME280;53689;56.878;60.672;2023-04-27T08:11:23;97471.84;;;23.25;29.00
62524;BME280;53689;56.878;60.672;2023-04-27T08:13:50;97460.06;;;23.19;28.70
62524;BME280;53689;56.878;60.672;2023-04-27T08:16:18;97459.03;;;23.51;29.28
62524;BME280;53689;56.878;60.672;2023-04-27T08:18:48;97456.19;;;23.46;29.42
62524;BME280;53689;56.878;60.672;2023-04-27T08:21:15;97453.84;;;24.04;28.35
62524;BME280;53689;56.878;60.672;2023-04-27T08:23:43;97448.31;;;23.87;29.05
62524;BME280;53689;56.878;60.672;2023-04-27T08:26:13;97451.63;;;24.01;28.24
62524;BME280;53689;56.878;60.672;2023-04-27T08:28:41;97464.91;;;23.90;29.48
62524;BME280;53689;56.878;60.672;2023-04-27T08:31:08;97456.00;;;24.14;27.82
62524;BME280;53689;56.878;60.672;2023-04-27T08:33:36;97456.69;;;24.09;27.94
62524;BME280;53689;56.878;60.672;2023-04-27T08:36:07;97445.78;;;24.28;27.49
62524;BME280;53689;56.878;60.672;2023-04-27T08:38:34;97450.53;;;23.78;28.86
62524;BME280;53689;56.878;60.672;2023-04-27T08:41:02;97439.56;;;24.15;28.57
62524;BME280;53689;56.878;60.672;2023-04-27T08:43:47;97442.22;;;23.49;28.93
62524;BME280;53689;56.878;60.672;2023-04-27T08:46:17;97447.84;;;23.35;28.17
62524;BME280;53689;56.878;60.672;2023-04-27T08:48:45;97445.50;;;23.20;28.72
62524;BME280;53689;56.878;60.672;2023-04-27T08:51:15;97437.34;;;23.58;28.65
62524;BME280;53689;56.878;60.672;2023-04-27T08:53:48;97441.44;;;23.60;28.92
62524;BME280;53689;56.878;60.672;2023-04-27T08:56:16;97434.47;;;23.22;28.48
62524;BME280;53689;56.878;60.672;2023-04-27T08:58:44;97435.97;;;23.36;28.83
62524;BME280;53689;56.878;60.672;2023-04-27T09:01:12;97427.72;;;23.12;28.02
62524;BME280;53689;56.878;60.672;2023-04-27T09:03:39;97433.31;;;23.48;28.53
62524;BME280;53689;56.878;60.672;2023-04-27T09:06:08;97424.97;;;23.50;28.47
62524;BME280;53689;56.878;60.672;2023-04-27T09:08:45;97421.56;;;24.09;27.63
62524;BME280;53689;56.878;60.672;2023-04-27T09:11:13;97426.13;;;23.42;28.19
62524;BME280;53689;56.878;60.672;2023-04-27T09:13:42;97419.03;;;23.29;28.36
62524;BME280;53689;56.878;60.672;2023-04-27T09:16:12;97425.53;;;23.52;28.75
62524;BME280;53689;56.878;60.672;2023-04-27T09:18:41;97429.78;;;23.48;28.61
62524;BME280;53689;56.878;60.672;2023-04-27T09:21:10;97418.34;;;23.88;30.33
62524;BME280;53689;56.878;60.672;2023-04-27T09:23:38;97429.22;;;23.58;29.28
62524;BME280;53689;56.878;60.672;2023-04-27T09:26:07;97422.19;;;23.68;28.72
62524;BME280;53689;56.878;60.672;2023-04-27T09:28:37;97415.66;;;24.00;28.44
62524;BME280;53689;56.878;60.672;2023-04-27T09:31:05;97410.66;;;23.49;28.03
62524;BME280;53689;56.878;60.672;2023-04-27T09:33:34;97414.22;;;23.31;29.12
62524;BME280;53689;56.878;60.672;2023-04-27T09:36:03;97405.91;;;24.23;26.77
62524;BME280;53689;56.878;60.672;2023-04-27T09:38:31;97408.81;;;23.97;27.66
62524;BME280;53689;56.878;60.672;2023-04-27T09:41:00;97416.59;;;23.39;27.54
62524;BME280;53689;56.878;60.672;2023-04-27T09:43:29;97423.47;;;23.66;28.10
62524;BME280;53689;56.878;60.672;2023-04-27T09:45:57;97423.22;;;23.55;27.60
62524;BME280;53689;56.878;60.672;2023-04-27T09:48:25;97420.34;;;23.38;28.31
62524;BME280;53689;56.878;60.672;2023-04-27T09:50:53;97412.50;;;23.49;28.67
62524;BME280;53689;56.878;60.672;2023-04-27T09:53:25;97415.84;;;23.32;28.21
62524;BME280;53689;56.878;60.672;2023-04-27T09:56:02;97412.66;;;23.23;27.67
62524;BME280;53689;56.878;60.672;2023-04-27T09:59:04;97407.81;;;23.44;27.98
62524;BME280;53689;56.878;60.672;2023-04-27T10:01:39;97396.59;;;23.95;27.28
62524;BME280;53689;56.878;60.672;2023-04-27T10:04:20;97402.75;;;24.14;27.29
62524;BME280;53689;56.878;60.672;2023-04-27T10:06:59;97401.56;;;24.34;26.81
62524;BME280;53689;56.878;60.672;2023-04-27T10:09:27;97403.22;;;24.11;28.00
62524;BME280;53689;56.878;60.672;2023-04-27T10:12:13;97387.59;;;24.13;26.93
62524;BME280;53689;56.878;60.672;2023-04-27T10:14:49;97389.03;;;24.80;25.74
62524;BME280;53689;56.878;60.672;2023-04-27T10:17:17;97396.63;;;24.43;27.83
62524;BME280;53689;56.878;60.672;2023-04-27T10:19:55;97406.09;;;23.62;28.04
62524;BME280;53689;56.878;60.672;2023-04-27T10:22:36;97398.41;;;24.13;27.05
62524;BME280;53689;56.878;60.672;2023-04-27T10:25:16;97393.06;;;23.82;27.20
62524;BME280;53689;56.878;60.672;2023-04-27T10:27:48;97389.81;;;24.04;26.92
62524;BME280;53689;56.878;60.672;2023-04-27T10:30:18;97390.28;;;24.13;27.13
62524;BME280;53689;56.878;60.672;2023-04-27T10:32:52;97392.63;;;23.86;28.91
62524;BME280;53689;56.878;60.672;2023-04-27T10:35:21;97393.59;;;23.49;26.82
62524;BME280;53689;56.878;60.672;2023-04-27T10:37:49;97393.28;;;23.57;27.66
62524;BME280;53689;56.878;60.672;2023-04-27T10:40:17;97382.97;;;24.37;25.79
62524;BME280;53689;56.878;60.672;2023-04-27T10:42:45;97386.25;;;23.92;27.49
62524;BME280;53689;56.878;60.672;2023-04-27T10:45:14;97383.78;;;24.02;27.06
62524;BME280;53689;56.878;60.672;2023-04-27T10:47:59;97378.38;;;23.78;26.50
62524;BME280;53689;56.878;60.672;2023-04-27T10:50:27;97377.97;;;23.51;26.90
62524;BME280;53689;56.878;60.672;2023-04-27T10:52:58;97377.09;;;23.93;27.18
62524;BME280;53689;56.878;60.672;2023-04-27T10:55:28;97374.03;;;23.77;27.10
62524;BME280;53689;56.878;60.672;2023-04-27T10:57:56;97369.56;;;23.71;26.48
62524;BME280;53689;56.878;60.672;2023-04-27T11:00:25;97369.97;;;23.44;26.63
62524;BME280;53689;56.878;60.672;2023-04-27T11:02:53;97363.22;;;23.65;26.95
62524;BME280;53689;56.878;60.672;2023-04-27T11:05:24;97361.69;;;23.69;25.63
62524;BME280;53689;56.878;60.672;2023-04-27T11:07:52;97370.84;;;23.26;26.84
62524;BME280;53689;56.878;60.672;2023-04-27T11:10:30;97347.91;;;23.47;26.49
62524;BME280;53689;56.878;60.672;2023-04-27T11:12:58;97353.22;;;23.54;25.90
62524;BME280;53689;56.878;60.672;2023-04-27T11:15:25;97349.69;;;23.65;25.52
62524;BME280;53689;56.878;60.672;2023-04-27T11:18:03;97353.00;;;23.91;26.31
62524;BME280;53689;56.878;60.672;2023-04-27T11:20:36;97359.44;;;23.54;25.40
62524;BME280;53689;56.878;60.672;2023-04-27T11:23:03;97345.44;;;23.46;26.16
62524;BME280;53689;56.878;60.672;2023-04-27T11:25:31;97351.22;;;23.49;25.40
62524;BME280;53689;56.878;60.672;2023-04-27T11:27:58;97343.09;;;23.61;26.49
62524;BME280;53689;56.878;60.672;2023-04-27T11:30:26;97353.31;;;23.47;26.15
62524;BME280;53689;56.878;60.672;2023-04-27T11:32:54;97346.16;;;23.53;25.77
62524;BME280;53689;56.878;60.672;2023-04-27T11:35:32;97340.19;;;23.63;26.33
62524;BME280;53689;56.878;60.672;2023-04-27T11:38:01;97338.41;;;23.68;26.40
62524;BME280;53689;56.878;60.672;2023-04-27T11:40:29;97332.22;;;23.68;26.26
62524;BME280;53689;56.878;60.672;2023-04-27T11:42:57;97340.56;;;23.90;26.29
62524;BME280;53689;56.878;60.672;2023-04-27T11:45:26;97331.50;;;24.08;25.77
62524;BME280;53689;56.878;60.672;2023-04-27T11:47:57;97334.44;;;23.83;26.13
62524;BME280;53689;56.878;60.672;2023-04-27T11:50:25;97331.28;;;23.62;25.75
62524;BME280;53689;56.878;60.672;2023-04-27T11:52:53;97326.44;;;23.52;25.62
62524;BME280;53689;56.878;60.672;2023-04-27T11:55:22;97332.56;;;23.72;26.07
62524;BME280;53689;56.878;60.672;2023-04-27T11:57:55;97334.06;;;23.67;25.71
62524;BME280;53689;56.878;60.672;2023-04-27T12:00:24;97331.38;;;23.44;24.83
62524;BME280;53689;56.878;60.672;2023-04-27T12:02:51;97325.25;;;23.60;25.83
62524;BME280;53689;56.878;60.672;2023-04-27T12:05:19;97326.88;;;23.61;25.55
62524;BME280;53689;56.878;60.672;2023-04-27T12:07:47;97322.31;;;23.62;26.32
62524;BME280;53689;56.878;60.672;2023-04-27T12:10:15;97323.88;;;23.58;26.33
62524;BME280;53689;56.878;60.672;2023-04-27T12:12:44;97328.28;;;23.52;25.39
62524;BME280;53689;56.878;60.672;2023-04-27T12:15:12;97331.81;;;23.40;25.48
62524;BME280;53689;56.878;60.672;2023-04-27T12:17:40;97326.66;;;23.51;26.33
62524;BME280;53689;56.878;60.672;2023-04-27T12:20:08;97331.38;;;23.67;26.12
62524;BME280;53689;56.878;60.672;2023-04-27T12:22:36;97329.97;;;23.53;25.62
62524;BME280;53689;56.878;60.672;2023-04-27T12:25:04;97325.50;;;23.70;26.35
62524;BME280;53689;56.878;60.672;2023-04-27T12:27:32;97330.53;;;23.79;25.67
62524;BME280;53689;56.878;60.672;2023-04-27T12:30:01;97323.16;;;23.62;25.93
62524;BME280;53689;56.878;60.672;2023-04-27T12:32:28;97325.25;;;23.60;25.53
62524;BME280;53689;56.878;60.672;2023-04-27T12:34:56;97319.84;;;23.60;25.19
62524;BME280;53689;56.878;60.672;2023-04-27T12:37:24;97311.63;;;23.55;25.30
62524;BME280;53689;56.878;60.672;2023-04-27T12:39:53;97318.09;;;23.54;25.64
62524;BME280;53689;56.878;60.672;2023-04-27T12:42:20;97316.91;;;23.50;25.46
62524;BME280;53689;56.878;60.672;2023-04-27T12:44:48;97320.66;;;23.84;24.46
62524;BME280;53689;56.878;60.672;2023-04-27T12:47:17;97320.22;;;23.88;25.75
62524;BME280;53689;56.878;60.672;2023-04-27T12:50:05;97317.75;;;23.74;26.28
62524;BME280;53689;56.878;60.672;2023-04-27T12:52:33;97314.78;;;23.52;25.82
62524;BME280;53689;56.878;60.672;2023-04-27T12:55:00;97324.56;;;23.53;25.79
62524;BME280;53689;56.878;60.672;2023-04-27T12:57:28;97320.31;;;23.57;26.07
62524;BME280;53689;56.878;60.672;2023-04-27T12:59:56;97323.25;;;23.55;26.19